createdAt,value
2019-03-15T00:01:38.226Z,2.30
2019-03-15T00:04:11.649Z,2.40
2019-03-15T00:06:45.022Z,2.60
2019-03-15T00:09:18.425Z,2.10
2019-03-15T00:11:51.929Z,2.23
2019-03-15T00:14:25.269Z,2.40
2019-03-15T00:16:58.710Z,3.03
2019-03-15T00:19:32.048Z,2.20
2019-03-15T00:22:05.688Z,2.20
2019-03-15T00:24:39.105Z,2.10
2019-03-15T00:27:12.606Z,2.40
2019-03-15T00:29:46.009Z,2.40
2019-03-15T00:32:19.372Z,2.30
2019-03-15T00:34:52.839Z,2.33
2019-03-15T00:37:26.211Z,1.90
2019-03-15T00:39:59.588Z,2.67
2019-03-15T00:42:33.032Z,2.80
2019-03-15T00:45:08.923Z,2.77
2019-03-15T00:47:42.314Z,2.60
2019-03-15T00:50:15.790Z,2.57
2019-03-15T00:52:49.235Z,2.50
2019-03-15T00:55:22.651Z,2.50
2019-03-15T00:57:56.061Z,2.60
2019-03-15T01:00:29.484Z,2.57
2019-03-15T01:03:02.906Z,2.60
2019-03-15T01:05:36.249Z,1.77
2019-03-15T01:08:09.627Z,2.73
2019-03-15T01:10:43.023Z,3.03
2019-03-15T01:13:16.404Z,2.10
2019-03-15T01:15:49.772Z,2.93
2019-03-15T01:18:23.189Z,2.50
2019-03-15T01:20:56.591Z,2.27
2019-03-15T01:23:29.979Z,2.00
2019-03-15T01:26:03.296Z,2.50
2019-03-15T01:28:36.653Z,2.47
2019-03-15T01:31:09.978Z,2.20
2019-03-15T01:33:43.329Z,2.40
2019-03-15T01:36:16.666Z,1.93
2019-03-15T01:38:50.016Z,1.90
2019-03-15T01:41:23.358Z,2.53
2019-03-15T01:43:56.779Z,2.10
2019-03-15T01:46:30.185Z,2.13
2019-03-15T01:49:03.677Z,1.80
2019-03-15T01:51:37.093Z,2.07
2019-03-15T01:54:10.571Z,2.43
2019-03-15T01:56:43.929Z,2.53
2019-03-15T01:59:17.271Z,2.57
2019-03-15T02:01:50.615Z,2.27
2019-03-15T02:04:23.992Z,2.80
2019-03-15T02:06:57.325Z,1.93
2019-03-15T02:09:30.697Z,2.77
2019-03-15T02:12:04.114Z,2.30
2019-03-15T02:14:37.497Z,2.47
2019-03-15T02:17:10.840Z,2.70
2019-03-15T02:19:44.177Z,2.80
2019-03-15T02:22:17.524Z,2.70
2019-03-15T02:24:50.889Z,2.57
2019-03-15T02:27:24.224Z,2.73
2019-03-15T02:29:57.681Z,2.50
2019-03-15T02:32:31.051Z,3.27
2019-03-15T02:35:05.437Z,3.00
2019-03-15T02:37:38.766Z,3.20
2019-03-15T02:40:12.850Z,2.90
2019-03-15T02:42:46.409Z,2.93
2019-03-15T02:45:19.832Z,3.40
2019-03-15T02:47:53.255Z,3.37
2019-03-15T02:50:26.614Z,3.30
2019-03-15T02:52:59.959Z,3.77
2019-03-15T02:55:33.393Z,3.20
2019-03-15T02:58:06.930Z,3.30
2019-03-15T03:00:41.018Z,3.90
2019-03-15T03:03:14.645Z,3.50
2019-03-15T03:05:48.063Z,3.90
2019-03-15T03:08:21.459Z,3.90
2019-03-15T03:10:55.913Z,3.50
2019-03-15T03:13:29.883Z,3.70
2019-03-15T03:16:03.270Z,3.07
2019-03-15T03:18:36.762Z,3.90
2019-03-15T03:21:10.203Z,3.97
2019-03-15T03:23:43.541Z,4.43
2019-03-15T03:26:16.883Z,3.83
2019-03-15T03:28:50.420Z,3.93
2019-03-15T03:31:23.797Z,3.97
2019-03-15T03:33:57.215Z,3.40
2019-03-15T03:36:30.649Z,3.90
2019-03-15T03:39:06.344Z,3.73
2019-03-15T03:41:40.177Z,3.30
2019-03-15T03:44:13.637Z,3.77
2019-03-15T03:46:47.125Z,3.47
2019-03-15T03:49:20.493Z,3.47
2019-03-15T03:51:53.824Z,4.10
2019-03-15T03:54:27.433Z,4.40
2019-03-15T03:57:00.917Z,3.43
2019-03-15T03:59:34.288Z,3.63
2019-03-15T04:02:07.699Z,3.43
2019-03-15T04:04:41.139Z,3.90
2019-03-15T04:07:14.630Z,3.57
2019-03-15T04:09:48.058Z,3.80
2019-03-15T04:12:21.398Z,3.20
2019-03-15T04:14:54.833Z,3.87
2019-03-15T04:17:28.249Z,3.20
2019-03-15T04:20:01.695Z,3.20
2019-03-15T04:22:35.053Z,3.27
2019-03-15T04:25:09.848Z,3.70
2019-03-15T04:27:43.179Z,3.80
2019-03-15T04:30:16.559Z,3.50
2019-03-15T04:32:49.917Z,3.57
2019-03-15T04:35:23.294Z,3.47
2019-03-15T04:37:56.653Z,2.70
2019-03-15T04:40:30.041Z,3.50
2019-03-15T04:43:03.349Z,3.37
2019-03-15T04:45:36.758Z,4.00
2019-03-15T04:48:10.066Z,3.87
2019-03-15T04:50:43.476Z,4.00
2019-03-15T04:53:16.819Z,4.00
2019-03-15T04:55:50.166Z,4.10
2019-03-15T04:58:23.515Z,4.03
2019-03-15T05:00:56.986Z,4.23
2019-03-15T05:03:30.349Z,4.47
2019-03-15T05:06:04.189Z,3.60
2019-03-15T05:08:37.666Z,4.37
2019-03-15T05:11:11.130Z,3.83
2019-03-15T05:13:44.587Z,4.37
2019-03-15T05:16:18.034Z,4.60
2019-03-15T05:18:51.378Z,4.83
2019-03-15T05:21:24.722Z,4.43
2019-03-15T05:23:58.049Z,4.67
2019-03-15T05:26:31.466Z,5.73
2019-03-15T05:29:04.959Z,4.50
2019-03-15T05:31:38.335Z,3.87
2019-03-15T05:34:11.700Z,4.53
2019-03-15T05:36:45.059Z,4.93
2019-03-15T05:39:18.471Z,4.47
2019-03-15T05:41:51.830Z,4.80
2019-03-15T05:44:25.184Z,5.40
2019-03-15T05:46:58.557Z,5.67
2019-03-15T05:49:31.900Z,5.30
2019-03-15T05:52:05.351Z,4.37
2019-03-15T05:54:38.729Z,5.70
2019-03-15T05:57:12.028Z,5.80
2019-03-15T05:59:45.438Z,6.60
2019-03-15T06:02:18.880Z,6.50
2019-03-15T06:04:52.213Z,6.80
2019-03-15T06:07:25.603Z,7.20
2019-03-15T06:09:58.944Z,6.07
2019-03-15T06:12:32.385Z,6.37
2019-03-15T06:15:07.864Z,7.20
2019-03-15T06:17:41.214Z,6.97
2019-03-15T06:20:14.635Z,6.63
2019-03-15T06:22:48.031Z,6.70
2019-03-15T06:25:21.391Z,7.10
2019-03-15T06:27:54.760Z,6.90
2019-03-15T06:30:28.140Z,8.03
2019-03-15T06:33:02.470Z,7.33
2019-03-15T06:35:35.926Z,7.40
2019-03-15T06:38:09.333Z,7.30
2019-03-15T06:40:42.763Z,7.13
2019-03-15T06:43:16.199Z,8.03
2019-03-15T06:45:49.674Z,8.13
2019-03-15T06:48:23.062Z,8.40
2019-03-15T06:50:56.402Z,9.93
2019-03-15T06:53:29.838Z,10.23
2019-03-15T06:56:04.846Z,10.50
2019-03-15T06:58:38.275Z,10.33
2019-03-15T07:01:11.608Z,10.20
2019-03-15T07:03:45.071Z,10.47
2019-03-15T07:06:18.427Z,10.33
2019-03-15T07:08:51.801Z,10.00
2019-03-15T07:11:25.212Z,9.50
2019-03-15T07:13:58.612Z,8.70
2019-03-15T07:16:31.956Z,7.57
2019-03-15T07:19:05.385Z,7.57
2019-03-15T07:21:38.801Z,7.17
2019-03-15T07:24:24.499Z,6.83
2019-03-15T07:26:47.336Z,7.20
2019-03-15T07:29:20.664Z,6.90
2019-03-15T07:31:54.049Z,7.10
2019-03-15T07:34:27.444Z,6.40
2019-03-15T07:37:00.806Z,6.53
2019-03-15T07:39:34.211Z,6.57
2019-03-15T07:42:07.581Z,6.10
2019-03-15T07:44:40.913Z,6.83
2019-03-15T07:47:14.274Z,6.20
2019-03-15T07:49:47.693Z,7.27
2019-03-15T07:52:21.107Z,6.80
2019-03-15T07:54:54.455Z,6.53
2019-03-15T07:57:27.827Z,7.00
2019-03-15T08:00:01.179Z,7.17
2019-03-15T08:02:34.595Z,7.67
2019-03-15T08:05:08.977Z,6.90
2019-03-15T08:07:45.534Z,9.27
2019-03-15T08:10:17.359Z,7.80
2019-03-15T08:12:50.733Z,7.40
2019-03-15T08:15:24.148Z,7.10
2019-03-15T08:17:57.505Z,7.40
2019-03-15T08:20:30.868Z,6.63
2019-03-15T08:23:04.254Z,7.00
2019-03-15T08:25:37.664Z,6.57
2019-03-15T08:28:11.032Z,7.10
2019-03-15T08:30:44.461Z,5.90
2019-03-15T08:33:17.887Z,5.77
2019-03-15T08:35:51.310Z,6.47
2019-03-15T08:38:24.682Z,5.37
2019-03-15T08:40:58.085Z,5.37
2019-03-15T08:43:31.450Z,5.13
2019-03-15T08:46:04.841Z,4.20
2019-03-15T08:48:38.289Z,4.93
2019-03-15T08:51:11.753Z,4.57
2019-03-15T08:53:49.822Z,4.63
2019-03-15T08:56:23.238Z,4.10
2019-03-15T08:58:56.576Z,4.37
2019-03-15T09:01:29.976Z,4.67
2019-03-15T09:04:03.366Z,4.00
2019-03-15T09:06:36.840Z,3.77
2019-03-15T09:09:10.284Z,3.33
2019-03-15T09:11:43.718Z,3.80
2019-03-15T09:14:17.085Z,4.67
2019-03-15T09:16:50.432Z,4.10
2019-03-15T09:19:23.822Z,3.80
2019-03-15T09:22:00.453Z,3.63
2019-03-15T09:24:32.483Z,6.00
2019-03-15T09:27:05.876Z,3.43
2019-03-15T09:29:39.307Z,3.73
2019-03-15T09:32:12.784Z,4.20
2019-03-15T09:34:46.293Z,7.43
2019-03-15T09:37:19.633Z,5.20
2019-03-15T09:39:53.842Z,3.30
2019-03-15T09:42:27.170Z,5.20
2019-03-15T09:45:00.649Z,3.20
2019-03-15T09:47:34.017Z,3.20
2019-03-15T09:50:20.999Z,3.43
2019-03-15T09:52:45.169Z,3.63
2019-03-15T09:55:31.866Z,3.37
2019-03-15T09:57:53.963Z,3.60
2019-03-15T10:00:27.915Z,3.40
2019-03-15T10:03:01.404Z,3.20
2019-03-15T10:05:34.824Z,4.47
2019-03-15T10:08:23.648Z,4.60
2019-03-15T10:10:56.044Z,6.57
2019-03-15T10:13:35.275Z,6.93
2019-03-15T10:16:08.797Z,5.50
2019-03-15T10:18:50.369Z,3.60
2019-03-15T10:21:22.929Z,3.93
2019-03-15T10:23:56.318Z,5.00
2019-03-15T10:26:29.919Z,5.43
2019-03-15T10:29:14.570Z,4.83
2019-03-15T10:31:38.642Z,4.70
2019-03-15T10:34:12.075Z,6.20
2019-03-15T10:36:45.424Z,4.27
2019-03-15T10:39:18.856Z,4.57
2019-03-15T10:41:52.208Z,7.33
2019-03-15T10:44:25.569Z,5.80
2019-03-15T10:46:58.907Z,5.30
2019-03-15T10:49:32.327Z,5.43
2019-03-15T10:52:05.834Z,4.80
2019-03-15T10:54:39.491Z,5.20
2019-03-15T10:57:12.914Z,4.60
2019-03-15T10:59:46.303Z,5.07
2019-03-15T11:02:19.730Z,5.37
2019-03-15T11:04:53.072Z,5.60
2019-03-15T11:07:26.426Z,5.03
2019-03-15T11:09:59.814Z,5.27
2019-03-15T11:12:33.175Z,5.73
2019-03-15T11:15:09.154Z,5.63
2019-03-15T11:17:42.605Z,5.17
2019-03-15T11:20:16.103Z,5.50
2019-03-15T11:22:49.435Z,5.50
2019-03-15T11:25:22.773Z,5.00
2019-03-15T11:27:56.178Z,5.10
2019-03-15T11:30:29.675Z,5.10
2019-03-15T11:33:03.019Z,4.60
2019-03-15T11:35:36.526Z,4.10
2019-03-15T11:38:09.951Z,3.00
2019-03-15T11:40:43.318Z,0.90
2019-03-15T11:43:16.728Z,1.00
2019-03-15T11:45:50.159Z,0.97
2019-03-15T11:48:23.591Z,0.80
2019-03-15T11:50:57.048Z,0.90
2019-03-15T11:53:30.578Z,0.60
2019-03-15T11:56:04.114Z,0.70
2019-03-15T11:58:37.449Z,0.70
2019-03-15T12:01:10.881Z,0.70
2019-03-15T12:03:52.975Z,0.70
2019-03-15T12:06:19.464Z,0.57
2019-03-15T12:08:52.789Z,0.60
2019-03-15T12:11:26.237Z,0.70
2019-03-15T12:13:59.556Z,0.60
2019-03-15T12:16:32.994Z,0.60
2019-03-15T12:19:06.435Z,0.57
2019-03-15T12:21:39.865Z,0.60
2019-03-15T12:24:13.273Z,0.50
2019-03-15T12:26:46.688Z,0.50
2019-03-15T12:29:20.059Z,0.50
2019-03-15T12:31:53.478Z,0.40
2019-03-15T12:34:26.884Z,0.50
2019-03-15T12:37:01.238Z,0.60
2019-03-15T12:39:34.595Z,0.40
2019-03-15T12:42:07.969Z,0.60
2019-03-15T12:44:41.362Z,0.53
2019-03-15T12:47:14.814Z,0.50
2019-03-15T12:49:48.276Z,0.53
2019-03-15T12:52:21.628Z,0.50
2019-03-15T12:54:55.059Z,0.50
2019-03-15T12:57:28.499Z,0.40
2019-03-15T13:00:01.937Z,0.50
2019-03-15T13:02:35.402Z,0.33
2019-03-15T13:05:08.879Z,0.40
2019-03-15T13:07:42.378Z,0.50
2019-03-15T13:10:19.613Z,0.40
2019-03-15T13:12:53.018Z,0.50
2019-03-15T13:15:26.420Z,0.50
2019-03-15T13:17:59.865Z,0.60
2019-03-15T13:20:33.285Z,0.50
2019-03-15T13:23:06.749Z,0.60
2019-03-15T13:25:40.087Z,0.60
2019-03-15T13:28:13.601Z,0.70
2019-03-15T13:30:48.079Z,0.60
2019-03-15T13:33:21.480Z,0.50
2019-03-15T13:35:54.860Z,0.57
2019-03-15T13:38:28.228Z,0.60
2019-03-15T13:41:01.764Z,0.40
2019-03-15T13:43:35.160Z,0.50
2019-03-15T13:46:08.583Z,0.20
2019-03-15T13:48:42.096Z,0.40
2019-03-15T13:51:15.554Z,0.60
2019-03-15T13:53:48.995Z,0.60
2019-03-15T13:56:22.397Z,0.40
2019-03-15T13:58:57.560Z,0.20
2019-03-15T14:01:31.150Z,0.37
2019-03-15T14:04:04.708Z,1.03
2019-03-15T14:06:38.126Z,0.50
2019-03-15T14:09:11.571Z,0.40
2019-03-15T14:11:44.987Z,0.43
2019-03-15T14:14:18.445Z,0.40
2019-03-15T14:16:51.881Z,0.40
2019-03-15T14:19:25.347Z,0.50
2019-03-15T14:21:58.767Z,0.30
2019-03-15T14:24:32.232Z,0.50
2019-03-15T14:27:05.623Z,0.30
2019-03-15T14:29:39.098Z,0.20
2019-03-15T14:32:12.491Z,0.20
2019-03-15T14:34:46.049Z,0.40
2019-03-15T14:37:19.393Z,0.40
2019-03-15T14:39:52.930Z,0.40
2019-03-15T14:42:26.283Z,0.47
2019-03-15T14:44:59.785Z,0.50
2019-03-15T14:47:33.225Z,0.50
2019-03-15T14:50:09.420Z,0.30
2019-03-15T14:52:42.792Z,0.30
2019-03-15T14:55:17.080Z,0.40
2019-03-15T14:57:53.031Z,0.40
2019-03-15T15:00:25.843Z,0.40
2019-03-15T15:02:59.259Z,0.47
2019-03-15T15:05:32.684Z,0.43
2019-03-15T15:08:06.122Z,0.50
2019-03-15T15:10:39.469Z,0.50
2019-03-15T15:13:12.845Z,0.47
2019-03-15T15:15:46.186Z,0.60
2019-03-15T15:18:19.608Z,0.43
2019-03-15T15:20:52.962Z,0.50
2019-03-15T15:23:26.402Z,0.50
2019-03-15T15:25:59.833Z,0.50
2019-03-15T15:28:33.208Z,0.60
2019-03-15T15:31:06.779Z,0.60
2019-03-15T15:33:40.135Z,0.70
2019-03-15T15:36:13.537Z,0.77
2019-03-15T15:38:46.932Z,0.80
2019-03-15T15:41:20.416Z,0.50
2019-03-15T15:43:53.773Z,0.70
2019-03-15T15:46:27.202Z,0.60
2019-03-15T15:49:00.712Z,0.60
2019-03-15T15:51:34.124Z,0.70
2019-03-15T15:54:07.508Z,0.60
2019-03-15T15:56:40.907Z,0.50
2019-03-15T15:59:14.421Z,0.40
2019-03-15T16:01:47.936Z,0.70
2019-03-15T16:04:21.304Z,0.60
2019-03-15T16:06:54.661Z,0.70
2019-03-15T16:09:28.103Z,0.70
2019-03-15T16:12:01.447Z,0.67
2019-03-15T16:14:34.874Z,0.70
2019-03-15T16:17:08.340Z,0.80
2019-03-15T16:19:41.769Z,0.60
2019-03-15T16:22:15.188Z,0.70
2019-03-15T16:24:48.628Z,0.80
2019-03-15T16:27:22.111Z,0.60
2019-03-15T16:29:55.588Z,0.70
2019-03-15T16:32:28.981Z,0.83
2019-03-15T16:35:02.321Z,0.90
2019-03-15T16:37:35.774Z,0.80
2019-03-15T16:40:10.669Z,0.70
2019-03-15T16:42:44.070Z,0.70
2019-03-15T16:45:25.837Z,0.70
2019-03-15T16:47:59.340Z,0.90
2019-03-15T16:50:32.855Z,0.70
2019-03-15T16:53:06.238Z,0.60
2019-03-15T16:55:39.722Z,0.80
2019-03-15T16:58:13.068Z,0.80
2019-03-15T17:00:46.527Z,0.80
2019-03-15T17:03:19.883Z,0.53
2019-03-15T17:05:53.308Z,0.97
2019-03-15T17:08:26.827Z,0.70
2019-03-15T17:11:00.177Z,0.60
2019-03-15T17:13:33.544Z,0.80
2019-03-15T17:16:07.140Z,0.90
2019-03-15T17:18:40.565Z,0.90
2019-03-15T17:21:13.908Z,0.80
2019-03-15T17:23:47.376Z,0.90
2019-03-15T17:26:20.896Z,0.80
2019-03-15T17:28:58.873Z,1.00
2019-03-15T17:31:29.493Z,0.70
2019-03-15T17:34:02.909Z,0.80
2019-03-15T17:36:36.360Z,0.60
2019-03-15T17:39:09.776Z,0.80
2019-03-15T17:41:43.180Z,0.70
2019-03-15T17:44:16.552Z,0.80
2019-03-15T17:46:50.010Z,0.97
2019-03-15T17:49:23.421Z,0.90
2019-03-15T17:51:56.775Z,0.70
2019-03-15T17:54:30.102Z,0.70
2019-03-15T17:57:04.430Z,0.97
2019-03-15T17:59:37.812Z,0.60
2019-03-15T18:02:11.242Z,0.70
2019-03-15T18:04:44.620Z,1.00
2019-03-15T18:07:17.963Z,0.63
2019-03-15T18:09:51.328Z,0.90
2019-03-15T18:12:24.818Z,0.40
2019-03-15T18:14:58.159Z,0.73
2019-03-15T18:17:31.582Z,0.80
2019-03-15T18:20:09.036Z,0.70
2019-03-15T18:22:42.440Z,0.50
2019-03-15T18:25:15.870Z,0.80
2019-03-15T18:27:49.384Z,0.50
2019-03-15T18:30:22.864Z,0.60
2019-03-15T18:32:56.214Z,0.60
2019-03-15T18:35:33.931Z,0.40
2019-03-15T18:38:04.882Z,0.40
2019-03-15T18:40:41.271Z,0.70
2019-03-15T18:43:14.613Z,0.50
2019-03-15T18:45:48.030Z,0.60
2019-03-15T18:48:21.450Z,0.60
2019-03-15T18:50:54.930Z,0.60
2019-03-15T18:53:28.291Z,0.60
2019-03-15T18:56:01.674Z,1.30
2019-03-15T18:58:35.087Z,0.50
2019-03-15T19:01:08.601Z,0.50
2019-03-15T19:03:41.958Z,0.50
2019-03-15T19:06:18.509Z,0.40
2019-03-15T19:08:52.012Z,0.60
2019-03-15T19:11:25.447Z,0.50
2019-03-15T19:13:58.886Z,0.60
2019-03-15T19:16:32.344Z,0.40
2019-03-15T19:19:05.765Z,0.50
2019-03-15T19:21:39.167Z,0.50
2019-03-15T19:24:12.602Z,0.70
2019-03-15T19:26:45.986Z,0.60
2019-03-15T19:29:19.397Z,0.73
2019-03-15T19:31:52.867Z,0.40
2019-03-15T19:34:26.257Z,0.80
2019-03-15T19:37:01.066Z,0.50
2019-03-15T19:39:34.526Z,0.50
2019-03-15T19:42:08.010Z,0.60
2019-03-15T19:44:41.368Z,0.70
2019-03-15T19:47:14.848Z,0.60
2019-03-15T19:49:48.255Z,0.60
2019-03-15T19:52:21.753Z,0.40
2019-03-15T19:55:00.397Z,0.40
2019-03-15T19:57:30.506Z,0.60
2019-03-15T20:00:08.015Z,0.57
2019-03-15T20:02:41.653Z,0.40
2019-03-15T20:05:15.155Z,0.10
2019-03-15T20:07:48.715Z,0.50
2019-03-15T20:10:22.164Z,0.53
2019-03-15T20:12:55.548Z,0.50
2019-03-15T20:15:29.005Z,0.40
2019-03-15T20:18:02.497Z,0.40
2019-03-15T20:20:35.927Z,0.83
2019-03-15T20:23:09.404Z,1.47
2019-03-15T20:25:42.660Z,0.50
2019-03-15T20:28:16.121Z,0.50
2019-03-15T20:30:52.115Z,0.40
2019-03-15T20:33:24.617Z,0.30
2019-03-15T20:35:58.041Z,0.40
2019-03-15T20:38:31.501Z,0.30
2019-03-15T20:41:04.918Z,0.40
2019-03-15T20:43:38.414Z,0.40
2019-03-15T20:46:11.811Z,0.50
2019-03-15T20:48:45.357Z,0.50
2019-03-15T20:51:18.764Z,0.30
2019-03-15T20:53:52.180Z,0.70
2019-03-15T20:56:25.546Z,0.57
2019-03-15T20:58:58.943Z,0.50
2019-03-15T21:01:32.364Z,1.00
2019-03-15T21:04:05.786Z,0.70
2019-03-15T21:06:39.686Z,0.50
2019-03-15T21:09:13.649Z,0.70
2019-03-15T21:11:47.064Z,0.70
2019-03-15T21:14:20.482Z,0.60
2019-03-15T21:16:53.840Z,0.47
2019-03-15T21:19:27.345Z,0.80
2019-03-15T21:22:00.788Z,0.50
2019-03-15T21:24:34.320Z,0.30
2019-03-15T21:27:07.869Z,0.60
2019-03-15T21:29:41.183Z,0.50
2019-03-15T21:32:14.762Z,0.60
2019-03-15T21:34:48.127Z,0.47
2019-03-15T21:37:21.569Z,0.70
2019-03-15T21:39:54.943Z,0.50
2019-03-15T21:42:28.361Z,0.50
2019-03-15T21:45:01.796Z,0.53
2019-03-15T21:47:35.165Z,0.60
2019-03-15T21:50:13.481Z,0.50
2019-03-15T21:52:46.911Z,0.73
2019-03-15T21:55:20.344Z,0.50
2019-03-15T21:57:53.799Z,0.60
2019-03-15T22:00:27.230Z,0.60
2019-03-15T22:03:00.685Z,0.60
2019-03-15T22:05:34.218Z,0.50
2019-03-15T22:08:07.731Z,0.50
2019-03-15T22:10:41.080Z,0.60
2019-03-15T22:13:14.615Z,0.50
2019-03-15T22:15:48.129Z,0.50
2019-03-15T22:18:21.489Z,0.50
2019-03-15T22:20:54.924Z,0.60
2019-03-15T22:23:28.284Z,0.60
2019-03-15T22:26:01.679Z,0.50
2019-03-15T22:28:35.012Z,0.57
2019-03-15T22:31:16.450Z,0.50
2019-03-15T22:33:43.564Z,0.60
2019-03-15T22:36:16.955Z,0.50
2019-03-15T22:38:50.417Z,0.80
2019-03-15T22:41:23.829Z,0.60
2019-03-15T22:43:57.261Z,0.50
2019-03-15T22:46:30.724Z,0.53
2019-03-15T22:49:04.135Z,0.50
2019-03-15T22:51:37.570Z,0.70
2019-03-15T22:54:10.939Z,0.80
2019-03-15T22:56:44.277Z,0.70
2019-03-15T22:59:17.656Z,0.70
2019-03-15T23:01:51.078Z,0.60
2019-03-15T23:04:24.446Z,0.60
2019-03-15T23:06:57.796Z,0.70
2019-03-15T23:09:31.151Z,0.80
2019-03-15T23:12:04.525Z,0.70
2019-03-15T23:14:37.980Z,0.80
2019-03-15T23:17:11.434Z,0.70
2019-03-15T23:19:44.792Z,0.70
2019-03-15T23:22:18.256Z,0.57
2019-03-15T23:24:51.573Z,0.70
2019-03-15T23:27:24.972Z,0.53
2019-03-15T23:29:58.446Z,0.57
2019-03-15T23:32:31.792Z,0.50
2019-03-15T23:35:06.123Z,0.60
2019-03-15T23:37:39.495Z,0.60
2019-03-15T23:40:14.376Z,0.70
2019-03-15T23:42:47.822Z,0.70
2019-03-15T23:45:21.162Z,0.60
2019-03-15T23:47:54.611Z,0.60
2019-03-15T23:50:27.953Z,0.60
2019-03-15T23:53:01.370Z,0.90
2019-03-15T23:55:34.785Z,0.70
2019-03-15T23:58:08.183Z,0.60
